sensor_id;sensor_type;location;lat;lon;timestamp;pressure;altitude;pressure_sealevel;temperature;humidity
74268;BME280;62638;51.362;12.472;2023-04-15T00:01:58;99067.34;;;6.72;100.00
74268;BME280;62638;51.362;12.472;2023-04-15T00:04:24;99063.34;;;6.58;100.00
74268;BME280;62638;51.362;12.472;2023-04-15T00:06:53;99058.88;;;6.59;100.00
74268;BME280;62638;51.362;12.472;2023-04-15T00:09:19;99072.16;;;6.59;100.00
74268;BME280;62638;51.362;12.472;2023-04-15T00:11:45;99055.66;;;6.55;100.00
74268;BME280;62638;51.362;12.472;2023-04-15T00:14:12;99059.34;;;6.45;100.00
74268;BME280;62638;51.362;12.472;2023-04-15T00:16:37;99065.50;;;6.45;100.00
74268;BME280;62638;51.362;12.472;2023-04-15T00:19:03;99060.31;;;6.44;100.00
74268;BME280;62638;51.362;12.472;2023-04-15T00:21:29;99050.09;;;6.49;100.00
74268;BME280;62638;51.362;12.472;2023-04-15T00:23:54;99050.78;;;6.51;100.00
74268;BME280;62638;51.362;12.472;2023-04-15T00:26:19;99044.09;;;6.47;100.00
74268;BME280;62638;51.362;12.472;2023-04-15T00:28:45;99043.47;;;6.53;100.00
74268;BME280;62638;51.362;12.472;2023-04-15T00:31:11;99039.44;;;6.49;100.00
74268;BME280;62638;51.362;12.472;2023-04-15T00:33:36;99041.72;;;6.44;100.00
74268;BME280;62638;51.362;12.472;2023-04-15T00:36:02;99032.16;;;6.51;100.00
74268;BME280;62638;51.362;12.472;2023-04-15T00:38:28;99024.78;;;6.45;100.00
74268;BME280;62638;51.362;12.472;2023-04-15T00:40:54;99027.53;;;6.53;100.00
74268;BME280;62638;51.362;12.472;2023-04-15T00:43:20;99036.38;;;6.44;100.00
74268;BME280;62638;51.362;12.472;2023-04-15T00:45:45;99032.09;;;6.43;100.00
74268;BME280;62638;51.362;12.472;2023-04-15T00:48:11;99032.09;;;6.43;100.00
74268;BME280;62638;51.362;12.472;2023-04-15T00:50:36;99034.56;;;6.44;100.00
74268;BME280;62638;51.362;12.472;2023-04-15T00:53:02;99017.94;;;6.42;100.00
74268;BME280;62638;51.362;12.472;2023-04-15T00:55:27;99023.09;;;6.44;100.00
74268;BME280;62638;51.362;12.472;2023-04-15T00:57:53;99030.09;;;6.45;100.00
74268;BME280;62638;51.362;12.472;2023-04-15T01:00:19;99025.06;;;6.42;100.00
74268;BME280;62638;51.362;12.472;2023-04-15T01:02:45;99018.03;;;6.50;100.00
74268;BME280;62638;51.362;12.472;2023-04-15T01:05:10;99016.78;;;6.45;100.00
74268;BME280;62638;51.362;12.472;2023-04-15T01:07:35;99015.94;;;6.44;100.00
74268;BME280;62638;51.362;12.472;2023-04-15T01:10:02;99018.72;;;6.52;100.00
74268;BME280;62638;51.362;12.472;2023-04-15T01:12:28;99009.41;;;6.38;100.00
74268;BME280;62638;51.362;12.472;2023-04-15T01:14:54;99013.38;;;6.52;100.00
74268;BME280;62638;51.362;12.472;2023-04-15T01:17:19;99021.75;;;6.57;100.00
74268;BME280;62638;51.362;12.472;2023-04-15T01:19:45;99012.84;;;6.49;100.00
74268;BME280;62638;51.362;12.472;2023-04-15T01:22:11;99008.25;;;6.51;100.00
74268;BME280;62638;51.362;12.472;2023-04-15T01:24:36;99020.00;;;6.48;100.00
74268;BME280;62638;51.362;12.472;2023-04-15T01:27:02;99020.00;;;6.48;100.00
74268;BME280;62638;51.362;12.472;2023-04-15T01:29:30;99015.13;;;6.44;100.00
74268;BME280;62638;51.362;12.472;2023-04-15T01:31:55;99011.47;;;6.45;100.00
74268;BME280;62638;51.362;12.472;2023-04-15T01:34:21;99003.41;;;6.36;100.00
74268;BME280;62638;51.362;12.472;2023-04-15T01:36:47;99006.38;;;6.33;100.00
74268;BME280;62638;51.362;12.472;2023-04-15T01:39:12;99009.25;;;6.40;100.00
74268;BME280;62638;51.362;12.472;2023-04-15T01:41:37;99004.06;;;6.38;100.00
74268;BME280;62638;51.362;12.472;2023-04-15T01:44:04;98993.69;;;6.45;100.00
74268;BME280;62638;51.362;12.472;2023-04-15T01:46:31;98993.44;;;6.38;100.00
74268;BME280;62638;51.362;12.472;2023-04-15T01:48:56;98984.50;;;6.39;100.00
74268;BME280;62638;51.362;12.472;2023-04-15T01:51:21;98987.44;;;6.36;100.00
74268;BME280;62638;51.362;12.472;2023-04-15T01:53:47;98969.72;;;6.27;100.00
74268;BME280;62638;51.362;12.472;2023-04-15T01:56:12;98977.78;;;6.35;100.00
74268;BME280;62638;51.362;12.472;2023-04-15T01:58:38;98987.53;;;6.45;100.00
74268;BME280;62638;51.362;12.472;2023-04-15T02:01:04;98982.00;;;6.38;100.00
74268;BME280;62638;51.362;12.472;2023-04-15T02:03:30;98980.84;;;6.41;100.00
74268;BME280;62638;51.362;12.472;2023-04-15T02:05:55;98974.16;;;6.36;100.00
74268;BME280;62638;51.362;12.472;2023-04-15T02:08:20;98975.75;;;6.29;100.00
74268;BME280;62638;51.362;12.472;2023-04-15T02:10:46;98975.22;;;6.44;100.00
74268;BME280;62638;51.362;12.472;2023-04-15T02:13:12;98965.13;;;6.29;100.00
74268;BME280;62638;51.362;12.472;2023-04-15T02:15:37;98971.81;;;6.33;100.00
74268;BME280;62638;51.362;12.472;2023-04-15T02:18:03;98966.50;;;6.33;100.00
74268;BME280;62638;51.362;12.472;2023-04-15T02:20:28;98959.72;;;6.39;100.00
74268;BME280;62638;51.362;12.472;2023-04-15T02:22:56;98962.38;;;6.39;100.00
74268;BME280;62638;51.362;12.472;2023-04-15T02:25:22;98956.00;;;6.32;100.00
74268;BME280;62638;51.362;12.472;2023-04-15T02:27:47;98959.03;;;6.37;100.00
74268;BME280;62638;51.362;12.472;2023-04-15T02:30:12;98949.28;;;6.28;100.00
74268;BME280;62638;51.362;12.472;2023-04-15T02:32:39;98959.19;;;6.35;100.00
74268;BME280;62638;51.362;12.472;2023-04-15T02:35:05;98955.94;;;6.42;100.00
74268;BME280;62638;51.362;12.472;2023-04-15T02:37:31;98952.56;;;6.39;100.00
74268;BME280;62638;51.362;12.472;2023-04-15T02:40:01;98951.28;;;6.44;100.00
74268;BME280;62638;51.362;12.472;2023-04-15T02:42:26;98954.47;;;6.29;100.00
74268;BME280;62638;51.362;12.472;2023-04-15T02:44:52;98945.78;;;6.27;100.00
74268;BME280;62638;51.362;12.472;2023-04-15T02:47:19;98953.84;;;6.35;100.00
74268;BME280;62638;51.362;12.472;2023-04-15T02:49:44;98958.34;;;6.35;100.00
74268;BME280;62638;51.362;12.472;2023-04-15T02:52:09;98963.13;;;6.31;100.00
74268;BME280;62638;51.362;12.472;2023-04-15T02:54:35;98957.75;;;6.41;100.00
74268;BME280;62638;51.362;12.472;2023-04-15T02:57:00;98961.25;;;6.42;100.00
74268;BME280;62638;51.362;12.472;2023-04-15T02:59:26;98958.66;;;6.32;100.00
74268;BME280;62638;51.362;12.472;2023-04-15T03:01:51;98952.34;;;6.33;100.00
74268;BME280;62638;51.362;12.472;2023-04-15T03:04:16;98955.16;;;6.31;100.00
74268;BME280;62638;51.362;12.472;2023-04-15T03:06:41;98951.81;;;6.29;100.00
74268;BME280;62638;51.362;12.472;2023-04-15T03:09:07;98954.56;;;6.37;100.00
74268;BME280;62638;51.362;12.472;2023-04-15T03:11:32;98952.78;;;6.28;100.00
74268;BME280;62638;51.362;12.472;2023-04-15T03:13:57;98952.50;;;6.31;100.00
74268;BME280;62638;51.362;12.472;2023-04-15T03:16:23;98954.69;;;6.36;100.00
74268;BME280;62638;51.362;12.472;2023-04-15T03:18:49;98945.88;;;6.35;100.00
74268;BME280;62638;51.362;12.472;2023-04-15T03:21:14;98958.50;;;6.33;100.00
74268;BME280;62638;51.362;12.472;2023-04-15T03:23:40;98945.66;;;6.29;100.00
74268;BME280;62638;51.362;12.472;2023-04-15T03:26:05;98950.13;;;6.28;100.00
74268;BME280;62638;51.362;12.472;2023-04-15T03:28:30;98949.69;;;6.33;100.00
74268;BME280;62638;51.362;12.472;2023-04-15T03:30:56;98950.66;;;6.32;100.00
74268;BME280;62638;51.362;12.472;2023-04-15T03:33:22;98953.19;;;6.33;100.00
74268;BME280;62638;51.362;12.472;2023-04-15T03:35:47;98955.53;;;6.36;100.00
74268;BME280;62638;51.362;12.472;2023-04-15T03:38:12;98953.19;;;6.33;100.00
74268;BME280;62638;51.362;12.472;2023-04-15T03:40:40;98960.16;;;6.34;100.00
74268;BME280;62638;51.362;12.472;2023-04-15T03:43:06;98951.19;;;6.35;100.00
74268;BME280;62638;51.362;12.472;2023-04-15T03:45:31;98952.03;;;6.36;100.00
74268;BME280;62638;51.362;12.472;2023-04-15T03:47:57;98947.56;;;6.36;100.00
74268;BME280;62638;51.362;12.472;2023-04-15T03:50:22;98946.19;;;6.32;100.00
74268;BME280;62638;51.362;12.472;2023-04-15T03:52:47;98945.34;;;6.32;100.00
74268;BME280;62638;51.362;12.472;2023-04-15T03:55:12;98947.88;;;6.33;100.00
74268;BME280;62638;51.362;12.472;2023-04-15T03:57:38;98949.25;;;6.37;100.00
74268;BME280;62638;51.362;12.472;2023-04-15T04:00:05;98933.22;;;6.29;100.00
74268;BME280;62638;51.362;12.472;2023-04-15T04:02:30;98945.75;;;6.37;100.00
74268;BME280;62638;51.362;12.472;2023-04-15T04:04:56;98932.97;;;6.41;100.00
74268;BME280;62638;51.362;12.472;2023-04-15T04:07:22;98938.06;;;6.34;100.00
74268;BME280;62638;51.362;12.472;2023-04-15T04:09:47;98938.75;;;6.36;100.00
74268;BME280;62638;51.362;12.472;2023-04-15T04:12:13;98934.56;;;6.33;100.00
74268;BME280;62638;51.362;12.472;2023-04-15T04:14:38;98939.44;;;6.38;100.00
74268;BME280;62638;51.362;12.472;2023-04-15T04:17:03;98937.00;;;6.45;100.00
74268;BME280;62638;51.362;12.472;2023-04-15T04:19:29;98935.63;;;6.41;100.00
74268;BME280;62638;51.362;12.472;2023-04-15T04:21:54;98936.47;;;6.41;100.00
74268;BME280;62638;51.362;12.472;2023-04-15T04:24:19;98942.34;;;6.45;100.00
74268;BME280;62638;51.362;12.472;2023-04-15T04:26:45;98942.47;;;6.43;100.00
74268;BME280;62638;51.362;12.472;2023-04-15T04:29:10;98933.50;;;6.44;100.00
74268;BME280;62638;51.362;12.472;2023-04-15T04:31:35;98940.19;;;6.48;100.00
74268;BME280;62638;51.362;12.472;2023-04-15T04:34:01;98944.69;;;6.48;100.00
74268;BME280;62638;51.362;12.472;2023-04-15T04:36:26;98952.75;;;6.38;100.00
74268;BME280;62638;51.362;12.472;2023-04-15T04:38:51;98937.72;;;6.47;100.00
74268;BME280;62638;51.362;12.472;2023-04-15T04:41:17;98938.69;;;6.46;100.00
74268;BME280;62638;51.362;12.472;2023-04-15T04:43:42;98926.28;;;6.36;100.00
74268;BME280;62638;51.362;12.472;2023-04-15T04:46:07;98927.34;;;6.44;100.00
74268;BME280;62638;51.362;12.472;2023-04-15T04:48:33;98948.22;;;6.38;100.00
74268;BME280;62638;51.362;12.472;2023-04-15T04:50:58;98942.25;;;6.36;100.00
74268;BME280;62638;51.362;12.472;2023-04-15T04:53:23;98928.56;;;6.31;100.00
74268;BME280;62638;51.362;12.472;2023-04-15T04:55:48;98940.50;;;6.45;100.00
74268;BME280;62638;51.362;12.472;2023-04-15T04:58:14;98950.22;;;6.36;100.00
74268;BME280;62638;51.362;12.472;2023-04-15T05:00:40;98948.63;;;6.44;100.00
74268;BME280;62638;51.362;12.472;2023-04-15T05:03:06;98946.06;;;6.34;100.00
74268;BME280;62638;51.362;12.472;2023-04-15T05:05:31;98942.25;;;6.36;100.00
74268;BME280;62638;51.362;12.472;2023-04-15T05:07:56;98943.09;;;6.37;100.00
74268;BME280;62638;51.362;12.472;2023-04-15T05:10:21;98944.31;;;6.43;100.00
74268;BME280;62638;51.362;12.472;2023-04-15T05:12:47;98929.47;;;6.40;100.00
74268;BME280;62638;51.362;12.472;2023-04-15T05:15:12;98929.19;;;6.43;100.00
74268;BME280;62638;51.362;12.472;2023-04-15T05:17:37;98943.63;;;6.41;100.00
74268;BME280;62638;51.362;12.472;2023-04-15T05:20:03;98934.88;;;6.48;100.00
74268;BME280;62638;51.362;12.472;2023-04-15T05:22:28;98923.97;;;6.51;100.00
74268;BME280;62638;51.362;12.472;2023-04-15T05:24:53;98928.06;;;6.46;100.00
74268;BME280;62638;51.362;12.472;2023-04-15T05:27:19;98940.59;;;6.53;100.00
74268;BME280;62638;51.362;12.472;2023-04-15T05:29:44;98934.16;;;6.56;100.00
74268;BME280;62638;51.362;12.472;2023-04-15T05:32:09;98934.28;;;6.54;100.00
74268;BME280;62638;51.362;12.472;2023-04-15T05:34:35;98929.66;;;6.56;100.00
74268;BME280;62638;51.362;12.472;2023-04-15T05:37:01;98940.16;;;6.58;100.00
74268;BME280;62638;51.362;12.472;2023-04-15T05:39:26;98926.31;;;6.54;100.00
74268;BME280;62638;51.362;12.472;2023-04-15T05:41:51;98936.34;;;6.60;100.00
74268;BME280;62638;51.362;12.472;2023-04-15T05:44:17;98937.88;;;6.63;100.00
74268;BME280;62638;51.362;12.472;2023-04-15T05:46:42;98931.19;;;6.59;100.00
74268;BME280;62638;51.362;12.472;2023-04-15T05:49:07;98944.63;;;6.57;100.00
74268;BME280;62638;51.362;12.472;2023-04-15T05:51:33;98934.81;;;6.58;100.00
74268;BME280;62638;51.362;12.472;2023-04-15T05:53:58;98931.94;;;6.69;100.00
74268;BME280;62638;51.362;12.472;2023-04-15T05:56:23;98931.78;;;6.70;100.00
74268;BME280;62638;51.362;12.472;2023-04-15T05:58:50;98925.63;;;6.70;100.00
74268;BME280;62638;51.362;12.472;2023-04-15T06:01:16;98932.63;;;6.71;100.00
74268;BME280;62638;51.362;12.472;2023-04-15T06:03:41;98929.97;;;6.71;100.00
74268;BME280;62638;51.362;12.472;2023-04-15T06:06:06;98934.13;;;6.73;100.00
74268;BME280;62638;51.362;12.472;2023-04-15T06:08:32;98939.00;;;6.78;100.00
74268;BME280;62638;51.362;12.472;2023-04-15T06:10:57;98931.66;;;6.72;100.00
74268;BME280;62638;51.362;12.472;2023-04-15T06:13:23;98930.03;;;6.79;100.00
74268;BME280;62638;51.362;12.472;2023-04-15T06:15:48;98936.72;;;6.83;100.00
74268;BME280;62638;51.362;12.472;2023-04-15T06:18:13;98930.19;;;6.77;100.00
74268;BME280;62638;51.362;12.472;2023-04-15T06:20:38;98932.94;;;6.86;100.00
74268;BME280;62638;51.362;12.472;2023-04-15T06:23:04;98930.19;;;6.77;100.00
74268;BME280;62638;51.362;12.472;2023-04-15T06:25:30;98928.22;;;6.79;100.00
74268;BME280;62638;51.362;12.472;2023-04-15T06:27:55;98931.94;;;6.87;100.00
74268;BME280;62638;51.362;12.472;2023-04-15T06:30:20;98939.56;;;6.81;100.00
74268;BME280;62638;51.362;12.472;2023-04-15T06:32:45;98940.00;;;6.77;100.00
74268;BME280;62638;51.362;12.472;2023-04-15T06:35:11;98933.69;;;6.78;100.00
74268;BME280;62638;51.362;12.472;2023-04-15T06:37:36;98939.91;;;6.87;100.00
74268;BME280;62638;51.362;12.472;2023-04-15T06:40:02;98939.38;;;6.83;100.00
74268;BME280;62638;51.362;12.472;2023-04-15T06:42:29;98935.88;;;6.82;100.00
74268;BME280;62638;51.362;12.472;2023-04-15T06:44:54;98932.16;;;6.93;100.00
74268;BME280;62638;51.362;12.472;2023-04-15T06:47:20;98944.41;;;6.86;100.00
74268;BME280;62638;51.362;12.472;2023-04-15T06:49:45;98940.47;;;6.90;100.00
74268;BME280;62638;51.362;12.472;2023-04-15T06:52:10;98929.97;;;6.89;100.00
74268;BME280;62638;51.362;12.472;2023-04-15T06:54:36;98939.84;;;6.96;100.00
74268;BME280;62638;51.362;12.472;2023-04-15T06:57:01;98934.19;;;6.99;100.00
74268;BME280;62638;51.362;12.472;2023-04-15T06:59:27;98940.06;;;7.03;100.00
74268;BME280;62638;51.362;12.472;2023-04-15T07:01:53;98938.09;;;7.05;100.00
74268;BME280;62638;51.362;12.472;2023-04-15T07:04:18;98945.22;;;7.04;100.00
74268;BME280;62638;51.362;12.472;2023-04-15T07:06:44;98951.84;;;7.00;100.00
74268;BME280;62638;51.362;12.472;2023-04-15T07:09:10;98949.94;;;7.10;100.00
74268;BME280;62638;51.362;12.472;2023-04-15T07:11:35;98962.41;;;7.10;100.00
74268;BME280;62638;51.362;12.472;2023-04-15T07:14:00;98961.59;;;7.09;100.00
74268;BME280;62638;51.362;12.472;2023-04-15T07:16:26;98963.66;;;7.15;100.00
74268;BME280;62638;51.362;12.472;2023-04-15T07:18:51;98967.94;;;7.16;100.00
74268;BME280;62638;51.362;12.472;2023-04-15T07:21:16;98959.81;;;7.18;100.00
74268;BME280;62638;51.362;12.472;2023-04-15T07:23:42;98957.16;;;7.18;100.00
74268;BME280;62638;51.362;12.472;2023-04-15T07:26:08;98962.03;;;7.22;100.00
74268;BME280;62638;51.362;12.472;2023-04-15T07:28:33;98950.06;;;7.26;100.00
74268;BME280;62638;51.362;12.472;2023-04-15T07:30:59;98957.47;;;7.33;100.00
74268;BME280;62638;51.362;12.472;2023-04-15T07:33:24;98957.03;;;7.45;100.00
74268;BME280;62638;51.362;12.472;2023-04-15T07:35:50;98959.47;;;7.39;100.00
74268;BME280;62638;51.362;12.472;2023-04-15T07:38:15;98963.34;;;7.44;100.00
74268;BME280;62638;51.362;12.472;2023-04-15T07:40:41;98959.06;;;7.51;100.00
74268;BME280;62638;51.362;12.472;2023-04-15T07:43:06;98968.13;;;7.58;100.00
74268;BME280;62638;51.362;12.472;2023-04-15T07:45:31;98968.66;;;7.62;100.00
74268;BME280;62638;51.362;12.472;2023-04-15T07:47:57;98971.69;;;7.67;100.00
74268;BME280;62638;51.362;12.472;2023-04-15T07:50:22;98967.47;;;7.64;100.00
74268;BME280;62638;51.362;12.472;2023-04-15T07:52:49;98973.75;;;7.55;100.00
74268;BME280;62638;51.362;12.472;2023-04-15T07:55:15;98973.19;;;7.69;100.00
74268;BME280;62638;51.362;12.472;2023-04-15T07:57:43;98970.88;;;7.49;100.00
74268;BME280;62638;51.362;12.472;2023-04-15T08:00:09;98977.09;;;7.57;100.00
74268;BME280;62638;51.362;12.472;2023-04-15T08:02:34;98984.63;;;7.62;100.00
74268;BME280;62638;51.362;12.472;2023-04-15T08:04:59;98986.81;;;7.66;100.00
74268;BME280;62638;51.362;12.472;2023-04-15T08:07:27;98976.13;;;7.58;100.00
74268;BME280;62638;51.362;12.472;2023-04-15T08:09:52;98982.84;;;7.70;100.00
74268;BME280;62638;51.362;12.472;2023-04-15T08:12:17;98979.56;;;7.77;100.00
74268;BME280;62638;51.362;12.472;2023-04-15T08:14:43;98970.53;;;7.69;100.00
74268;BME280;62638;51.362;12.472;2023-04-15T08:17:08;98981.25;;;7.86;100.00
74268;BME280;62638;51.362;12.472;2023-04-15T08:19:33;98978.03;;;7.74;100.00
74268;BME280;62638;51.362;12.472;2023-04-15T08:21:59;98987.72;;;7.75;100.00
74268;BME280;62638;51.362;12.472;2023-04-15T08:24:25;98993.47;;;7.88;100.00
74268;BME280;62638;51.362;12.472;2023-04-15T08:26:51;98994.59;;;7.86;100.00
74268;BME280;62638;51.362;12.472;2023-04-15T08:29:17;98999.25;;;7.84;100.00
74268;BME280;62638;51.362;12.472;2023-04-15T08:31:42;98998.94;;;7.87;100.00
74268;BME280;62638;51.362;12.472;2023-04-15T08:34:09;98994.78;;;7.84;100.00
74268;BME280;62638;51.362;12.472;2023-04-15T08:36:35;99007.81;;;7.95;100.00
74268;BME280;62638;51.362;12.472;2023-04-15T08:39:00;99004.50;;;7.93;100.00
74268;BME280;62638;51.362;12.472;2023-04-15T08:41:33;98994.34;;;7.97;100.00
74268;BME280;62638;51.362;12.472;2023-04-15T08:44:04;98995.34;;;7.96;100.00
74268;BME280;62638;51.362;12.472;2023-04-15T08:46:30;99001.19;;;7.99;100.00
74268;BME280;62638;51.362;12.472;2023-04-15T08:48:57;99011.75;;;8.09;100.00
74268;BME280;62638;51.362;12.472;2023-04-15T08:51:22;99017.59;;;8.12;100.00
74268;BME280;62638;51.362;12.472;2023-04-15T08:53:48;99008.63;;;8.21;100.00
74268;BME280;62638;51.362;12.472;2023-04-15T08:56:14;99007.00;;;8.29;100.00
74268;BME280;62638;51.362;12.472;2023-04-15T08:58:43;99019.53;;;8.28;100.00
74268;BME280;62638;51.362;12.472;2023-04-15T09:01:10;99017.63;;;8.20;100.00
74268;BME280;62638;51.362;12.472;2023-04-15T09:03:36;99016.69;;;8.30;100.00
74268;BME280;62638;51.362;12.472;2023-04-15T09:06:03;99016.59;;;8.39;100.00
74268;BME280;62638;51.362;12.472;2023-04-15T09:08:29;99017.22;;;8.33;100.00
74268;BME280;62638;51.362;12.472;2023-04-15T09:10:55;99006.75;;;8.40;100.00
74268;BME280;62638;51.362;12.472;2023-04-15T09:13:20;99018.16;;;8.58;100.00
74268;BME280;62638;51.362;12.472;2023-04-15T09:15:46;99017.97;;;8.59;100.00
74268;BME280;62638;51.362;12.472;2023-04-15T09:18:11;99020.00;;;8.57;100.00
74268;BME280;62638;51.362;12.472;2023-04-15T09:20:41;99017.00;;;8.60;100.00
74268;BME280;62638;51.362;12.472;2023-04-15T09:23:14;99014.84;;;8.64;100.00
74268;BME280;62638;51.362;12.472;2023-04-15T09:25:40;99016.69;;;8.72;100.00
74268;BME280;62638;51.362;12.472;2023-04-15T09:28:09;99016.00;;;8.61;100.00
74268;BME280;62638;51.362;12.472;2023-04-15T09:30:35;99025.56;;;8.80;100.00
74268;BME280;62638;51.362;12.472;2023-04-15T09:33:02;99014.38;;;8.77;100.00
74268;BME280;62638;51.362;12.472;2023-04-15T09:35:32;99032.94;;;8.94;100.00
74268;BME280;62638;51.362;12.472;2023-04-15T09:38:06;99041.94;;;8.93;100.00
74268;BME280;62638;51.362;12.472;2023-04-15T09:40:36;99037.44;;;8.86;100.00
74268;BME280;62638;51.362;12.472;2023-04-15T09:43:05;99046.13;;;8.96;100.00
74268;BME280;62638;51.362;12.472;2023-04-15T09:45:32;99037.63;;;9.00;100.00
74268;BME280;62638;51.362;12.472;2023-04-15T09:47:59;99042.28;;;8.98;100.00
74268;BME280;62638;51.362;12.472;2023-04-15T09:50:41;99041.81;;;9.03;100.00
74268;BME280;62638;51.362;12.472;2023-04-15T09:53:10;99051.00;;;9.08;100.00
74268;BME280;62638;51.362;12.472;2023-04-15T09:55:43;99046.31;;;9.02;100.00
74268;BME280;62638;51.362;12.472;2023-04-15T09:58:16;99052.34;;;9.04;100.00
74268;BME280;62638;51.362;12.472;2023-04-15T10:00:42;99039.97;;;9.11;100.00
74268;BME280;62638;51.362;12.472;2023-04-15T10:03:08;99047.00;;;9.21;100.00
74268;BME280;62638;51.362;12.472;2023-04-15T10:05:33;99046.38;;;9.27;100.00
74268;BME280;62638;51.362;12.472;2023-04-15T10:07:59;99059.03;;;9.17;100.00
74268;BME280;62638;51.362;12.472;2023-04-15T10:10:25;99052.06;;;9.32;100.00
74268;BME280;62638;51.362;12.472;2023-04-15T10:12:51;99055.56;;;9.40;100.00
74268;BME280;62638;51.362;12.472;2023-04-15T10:15:18;99054.56;;;9.49;100.00
74268;BME280;62638;51.362;12.472;2023-04-15T10:17:44;99058.59;;;9.62;100.00
74268;BME280;62638;51.362;12.472;2023-04-15T10:20:09;99056.06;;;9.60;100.00
74268;BME280;62638;51.362;12.472;2023-04-15T10:22:37;99065.44;;;9.56;100.00
74268;BME280;62638;51.362;12.472;2023-04-15T10:25:03;99065.28;;;9.57;100.00
74268;BME280;62638;51.362;12.472;2023-04-15T10:27:29;99060.41;;;9.61;100.00
74268;BME280;62638;51.362;12.472;2023-04-15T10:29:55;99066.91;;;9.58;100.00
74268;BME280;62638;51.362;12.472;2023-04-15T10:32:24;99067.41;;;9.62;100.00
74268;BME280;62638;51.362;12.472;2023-04-15T10:34:50;99070.94;;;9.63;100.00
74268;BME280;62638;51.362;12.472;2023-04-15T10:37:21;99071.78;;;9.79;100.00
74268;BME280;62638;51.362;12.472;2023-04-15T10:39:47;99082.78;;;9.76;100.00
74268;BME280;62638;51.362;12.472;2023-04-15T10:42:18;99068.28;;;9.71;100.00
74268;BME280;62638;51.362;12.472;2023-04-15T10:44:44;99073.44;;;9.80;100.00
74268;BME280;62638;51.362;12.472;2023-04-15T10:47:14;99081.63;;;9.95;100.00
74268;BME280;62638;51.362;12.472;2023-04-15T10:49:58;99079.81;;;9.87;100.00
74268;BME280;62638;51.362;12.472;2023-04-15T10:52:26;99083.81;;;9.99;100.00
74268;BME280;62638;51.362;12.472;2023-04-15T10:55:15;99076.28;;;9.79;100.00
74268;BME280;62638;51.362;12.472;2023-04-15T10:57:43;99082.78;;;9.92;100.00
74268;BME280;62638;51.362;12.472;2023-04-15T11:00:11;99085.28;;;10.02;100.00
74268;BME280;62638;51.362;12.472;2023-04-15T11:05:04;99075.09;;;9.89;100.00
74268;BME280;62638;51.362;12.472;2023-04-15T11:12:37;99088.97;;;10.01;100.00
74268;BME280;62638;51.362;12.472;2023-04-15T11:15:37;99103.19;;;10.26;100.00
74268;BME280;62638;51.362;12.472;2023-04-15T11:18:14;99106.19;;;10.31;100.00
74268;BME280;62638;51.362;12.472;2023-04-15T11:20:51;99107.88;;;10.24;100.00
74268;BME280;62638;51.362;12.472;2023-04-15T11:23:29;99114.56;;;10.20;100.00
74268;BME280;62638;51.362;12.472;2023-04-15T11:25:55;99114.91;;;10.09;100.00
74268;BME280;62638;51.362;12.472;2023-04-15T11:28:24;99113.03;;;10.01;100.00
74268;BME280;62638;51.362;12.472;2023-04-15T11:30:50;99116.53;;;10.10;100.00
74268;BME280;62638;51.362;12.472;2023-04-15T11:33:15;99115.41;;;10.04;100.00
74268;BME280;62638;51.362;12.472;2023-04-15T11:35:41;99116.41;;;10.03;100.00
74268;BME280;62638;51.362;12.472;2023-04-15T11:38:11;99117.06;;;9.97;100.00
74268;BME280;62638;51.362;12.472;2023-04-15T11:40:38;99123.25;;;10.14;100.00
74268;BME280;62638;51.362;12.472;2023-04-15T11:43:11;99131.28;;;9.89;100.00
74268;BME280;62638;51.362;12.472;2023-04-15T11:45:46;99135.63;;;10.07;100.00
74268;BME280;62638;51.362;12.472;2023-04-15T11:48:12;99141.81;;;10.15;100.00
74268;BME280;62638;51.362;12.472;2023-04-15T11:50:38;99149.84;;;10.23;100.00
74268;BME280;62638;51.362;12.472;2023-04-15T11:53:08;99149.34;;;10.20;100.00
74268;BME280;62638;51.362;12.472;2023-04-15T11:55:48;99149.81;;;10.07;100.00
74268;BME280;62638;51.362;12.472;2023-04-15T11:58:21;99132.75;;;9.84;100.00
74268;BME280;62638;51.362;12.472;2023-04-15T12:00:53;99161.38;;;10.08;100.00
74268;BME280;62638;51.362;12.472;2023-04-15T12:03:24;99167.56;;;10.08;100.00
74268;BME280;62638;51.362;12.472;2023-04-15T12:06:06;99160.38;;;10.09;100.00
74268;BME280;62638;51.362;12.472;2023-04-15T12:08:59;99168.41;;;10.09;100.00
74268;BME280;62638;51.362;12.472;2023-04-15T12:13:53;99173.59;;;10.18;100.00
74268;BME280;62638;51.362;12.472;2023-04-15T12:16:20;99171.91;;;10.33;100.00
74268;BME280;62638;51.362;12.472;2023-04-15T12:18:46;99179.47;;;10.22;100.00
74268;BME280;62638;51.362;12.472;2023-04-15T12:21:12;99183.44;;;10.42;100.00
74268;BME280;62638;51.362;12.472;2023-04-15T12:23:46;99184.66;;;10.39;100.00
74268;BME280;62638;51.362;12.472;2023-04-15T12:26:12;99186.63;;;10.37;100.00
74268;BME280;62638;51.362;12.472;2023-04-15T12:28:39;99193.50;;;10.32;100.00
74268;BME280;62638;51.362;12.472;2023-04-15T12:31:07;99192.50;;;10.25;100.00
74268;BME280;62638;51.362;12.472;2023-04-15T12:33:33;99195.34;;;10.39;100.00
74268;BME280;62638;51.362;12.472;2023-04-15T12:35:58;99194.50;;;10.31;100.00
74268;BME280;62638;51.362;12.472;2023-04-15T12:38:24;99204.84;;;10.58;100.00
74268;BME280;62638;51.362;12.472;2023-04-15T12:40:49;99197.19;;;10.31;100.00
74268;BME280;62638;51.362;12.472;2023-04-15T12:43:15;99194.63;;;10.54;100.00
74268;BME280;62638;51.362;12.472;2023-04-15T12:45:41;99202.81;;;10.68;100.00
74268;BME280;62638;51.362;12.472;2023-04-15T12:48:06;99208.53;;;10.57;100.00
74268;BME280;62638;51.362;12.472;2023-04-15T12:50:33;99213.38;;;10.70;100.00
74268;BME280;62638;51.362;12.472;2023-04-15T12:52:58;99214.88;;;10.64;100.00
74268;BME280;62638;51.362;12.472;2023-04-15T12:55:24;99225.09;;;10.69;100.00